createdAt,value
2023-05-21T00:03:16.352Z,97915.13
2023-05-21T00:07:18.743Z,97908.84
2023-05-21T00:11:20.845Z,97908.84
2023-05-21T00:15:23.055Z,97911.50
2023-05-21T00:19:25.245Z,97909.59
2023-05-21T00:23:27.737Z,97908.66
2023-05-21T00:27:29.835Z,97900.84
2023-05-21T00:31:32.250Z,97899.25
2023-05-21T00:35:34.904Z,97892.44
2023-05-21T00:39:37.209Z,97885.66
2023-05-21T00:43:42.376Z,97884.72
2023-05-21T00:47:45.892Z,97882.19
2023-05-21T00:51:48.998Z,97888.56
2023-05-21T00:55:51.172Z,97880.66
2023-05-21T00:59:53.923Z,97874.53
2023-05-21T01:03:57.832Z,97873.19
2023-05-21T01:08:00.345Z,97867.16
2023-05-21T01:12:03.361Z,97868.88
2023-05-21T01:16:06.742Z,97860.00
2023-05-21T01:20:10.408Z,97863.41
2023-05-21T01:24:13.342Z,97857.38
2023-05-21T01:28:15.414Z,97857.47
2023-05-21T01:32:20.806Z,97850.69
2023-05-21T01:36:26.268Z,97850.00
2023-05-21T01:40:40.682Z,97852.22
2023-05-21T01:44:43.528Z,97847.28
2023-05-21T01:48:46.762Z,97849.06
2023-05-21T01:52:51.038Z,97840.59
2023-05-21T01:56:53.176Z,97835.91
2023-05-21T02:00:56.993Z,97843.59
2023-05-21T02:05:00.364Z,97845.19
2023-05-21T02:09:03.689Z,97845.53
2023-05-21T02:13:05.911Z,97830.16
2023-05-21T02:17:08.183Z,97827.44
2023-05-21T02:21:13.226Z,97833.22
2023-05-21T02:25:19.631Z,97825.75
2023-05-21T02:29:21.724Z,97833.53
2023-05-21T02:33:23.785Z,97827.59
2023-05-21T02:37:29.857Z,97840.88
2023-05-21T02:41:31.968Z,97839.31
2023-05-21T02:45:34.096Z,97835.59
2023-05-21T02:49:36.536Z,97835.84
2023-05-21T02:53:39.025Z,97831.50
2023-05-21T02:57:41.078Z,97824.28
2023-05-21T03:01:44.922Z,97829.03
2023-05-21T03:05:48.256Z,97825.22
2023-05-21T03:09:50.483Z,97824.13
2023-05-21T03:13:52.544Z,97819.88
2023-05-21T03:17:55.277Z,97826.00
2023-05-21T03:21:58.714Z,97818.25
2023-05-21T03:26:02.337Z,97812.25
2023-05-21T03:30:06.711Z,97816.59
2023-05-21T03:34:14.927Z,97813.78
2023-05-21T03:38:17.123Z,97817.94
2023-05-21T03:42:19.317Z,97820.38
2023-05-21T03:46:26.688Z,97817.09
2023-05-21T03:50:47.421Z,97806.06
2023-05-21T03:54:49.848Z,97815.31
2023-05-21T03:58:52.674Z,97823.88
2023-05-21T04:02:54.913Z,97810.63
2023-05-21T04:06:57.061Z,97809.78
2023-05-21T04:10:59.200Z,97815.13
2023-05-21T04:15:02.548Z,97818.28
2023-05-21T04:19:06.098Z,97821.25
2023-05-21T04:23:08.607Z,97825.06
2023-05-21T04:27:10.692Z,97817.44
2023-05-21T04:31:13.745Z,97825.91
2023-05-21T04:35:16.034Z,97825.41
2023-05-21T04:39:18.251Z,97829.84
2023-05-21T04:43:26.527Z,97835.25
2023-05-21T04:47:35.416Z,97836.59
2023-05-21T04:51:38.708Z,97829.78
2023-05-21T04:55:41.895Z,97828.75
2023-05-21T04:59:44.154Z,97827.84
2023-05-21T05:03:46.458Z,97833.06
2023-05-21T05:07:48.770Z,97835.25
2023-05-21T05:11:51.479Z,97832.06
2023-05-21T05:15:54.757Z,97831.91
2023-05-21T05:19:57.252Z,97827.41
2023-05-21T05:23:59.380Z,97822.59
2023-05-21T05:28:04.273Z,97819.63
2023-05-21T05:32:07.311Z,97824.09
2023-05-21T05:36:09.458Z,97822.47
2023-05-21T05:40:12.487Z,97825.09
2023-05-21T05:44:14.841Z,97825.72
2023-05-21T05:48:18.821Z,97823.88
2023-05-21T05:52:21.541Z,97816.44
2023-05-21T05:56:23.740Z,97825.25
2023-05-21T06:00:26.197Z,97826.13
2023-05-21T06:04:29.952Z,97830.66
2023-05-21T06:08:36.697Z,97825.09
2023-05-21T06:12:40.155Z,97824.03
2023-05-21T06:16:42.411Z,97825.91
2023-05-21T06:20:44.645Z,97828.47
2023-05-21T06:24:47.258Z,97831.09
2023-05-21T06:28:50.406Z,97818.13
2023-05-21T06:32:52.833Z,97827.59
2023-05-21T06:36:55.066Z,97819.00
2023-05-21T06:40:58.525Z,97811.59
2023-05-21T06:45:18.091Z,97803.84
2023-05-21T06:49:21.064Z,97809.34
2023-05-21T06:53:23.300Z,97804.91
2023-05-21T06:57:25.812Z,97806.25
2023-05-21T07:01:28.063Z,97812.06
2023-05-21T07:05:30.762Z,97809.34
2023-05-21T07:09:32.932Z,97815.13
2023-05-21T07:13:36.229Z,97807.75
2023-05-21T07:17:38.875Z,97801.84
2023-05-21T07:21:41.499Z,97807.75
2023-05-21T07:25:43.630Z,97817.41
2023-05-21T07:29:46.438Z,97807.94
2023-05-21T07:33:49.529Z,97802.19
2023-05-21T07:37:53.507Z,97809.41
2023-05-21T07:41:55.673Z,97800.56
2023-05-21T07:45:58.291Z,97799.09
2023-05-21T07:50:01.572Z,97799.63
2023-05-21T07:54:04.155Z,97803.69
2023-05-21T07:58:10.378Z,97797.94
2023-05-21T08:02:13.092Z,97791.00
2023-05-21T08:06:16.023Z,97794.75
2023-05-21T08:10:19.478Z,97788.34
2023-05-21T08:14:23.656Z,97797.69
2023-05-21T08:18:27.350Z,97794.56
2023-05-21T08:22:31.379Z,97792.81
2023-05-21T08:26:33.782Z,97795.56
2023-05-21T08:30:36.099Z,97788.78
2023-05-21T08:34:38.206Z,97793.13
2023-05-21T08:38:54.230Z,97801.19
2023-05-21T08:43:01.271Z,97791.56
2023-05-21T08:47:21.904Z,97805.25
2023-05-21T08:51:24.244Z,97784.31
2023-05-21T08:55:27.955Z,97788.53
2023-05-21T08:59:30.798Z,97779.31
2023-05-21T09:03:33.461Z,97785.09
2023-05-21T09:08:09.111Z,97766.13
2023-05-21T09:12:19.965Z,97770.25
2023-05-21T09:16:22.113Z,97767.94
2023-05-21T09:20:27.005Z,97762.28
2023-05-21T09:24:36.230Z,97775.25
2023-05-21T09:28:39.271Z,97776.47
2023-05-21T09:32:42.105Z,97771.97
2023-05-21T09:36:44.327Z,97771.69
2023-05-21T09:40:46.690Z,97772.28
2023-05-21T09:44:49.030Z,97763.03
2023-05-21T09:48:51.133Z,97758.63
2023-05-21T09:52:55.398Z,97763.66
2023-05-21T09:56:57.570Z,97773.38
2023-05-21T10:00:59.694Z,97776.59
2023-05-21T10:05:04.211Z,97765.38
2023-05-21T10:09:14.728Z,97771.09
2023-05-21T10:13:21.811Z,97768.03
2023-05-21T10:17:24.679Z,97763.09
2023-05-21T10:21:27.565Z,97753.81
2023-05-21T10:25:31.351Z,97749.00
2023-05-21T10:29:33.907Z,97742.84
2023-05-21T10:33:36.956Z,97742.28
2023-05-21T10:37:40.065Z,97731.03
2023-05-21T10:42:07.581Z,97739.72
2023-05-21T10:46:32.804Z,97731.06
2023-05-21T10:51:06.537Z,97724.56
2023-05-21T10:55:17.745Z,97742.78
2023-05-21T10:59:48.322Z,97730.81
2023-05-21T11:03:50.588Z,97726.47
2023-05-21T11:07:57.159Z,97731.22
2023-05-21T11:12:00.863Z,97728.84
2023-05-21T11:16:07.949Z,97723.41
2023-05-21T11:20:13.427Z,97724.06
2023-05-21T11:24:20.041Z,97719.25
2023-05-21T11:28:33.046Z,97715.25
2023-05-21T11:33:01.490Z,97714.38
2023-05-21T11:37:30.881Z,97711.66
2023-05-21T11:41:50.114Z,97703.41
2023-05-21T11:45:52.841Z,97707.81
2023-05-21T11:49:57.141Z,97705.81
2023-05-21T11:53:59.212Z,97693.69
2023-05-21T11:58:02.118Z,97696.78
2023-05-21T12:02:04.907Z,97706.66
2023-05-21T12:06:08.325Z,97700.13
2023-05-21T12:10:11.159Z,97707.41
2023-05-21T12:14:13.973Z,97707.13
2023-05-21T12:18:16.745Z,97700.84
2023-05-21T12:22:19.239Z,97698.91
2023-05-21T12:26:21.990Z,97692.78
2023-05-21T12:30:25.756Z,97709.41
2023-05-21T12:34:50.166Z,97701.84
2023-05-21T12:38:52.291Z,97709.22
2023-05-21T12:42:54.355Z,97703.50
2023-05-21T12:46:57.084Z,97704.53
2023-05-21T12:50:59.818Z,97703.34
2023-05-21T12:55:01.921Z,97694.28
2023-05-21T12:59:03.962Z,97691.09
2023-05-21T13:03:06.746Z,97691.28
2023-05-21T13:07:09.103Z,97686.91
2023-05-21T13:11:11.165Z,97677.63
2023-05-21T13:15:13.337Z,97681.09
2023-05-21T13:19:15.944Z,97677.97
2023-05-21T13:23:18.055Z,97685.53
2023-05-21T13:27:20.282Z,97666.59
2023-05-21T13:31:22.321Z,97671.28
2023-05-21T13:35:24.530Z,97668.06
2023-05-21T13:39:27.677Z,97667.38
2023-05-21T13:43:29.868Z,97679.00
2023-05-21T13:47:32.670Z,97663.91
2023-05-21T13:51:39.004Z,97679.50
2023-05-21T13:55:41.504Z,97662.25
2023-05-21T13:59:43.574Z,97656.88
2023-05-21T14:03:45.646Z,97662.91
2023-05-21T14:07:48.350Z,97659.56
2023-05-21T14:11:50.817Z,97664.25
2023-05-21T14:15:52.838Z,97652.47
2023-05-21T14:19:55.712Z,97644.72
2023-05-21T14:23:57.811Z,97649.44
2023-05-21T14:27:59.906Z,97659.53
2023-05-21T14:32:01.969Z,97646.25
2023-05-21T14:36:04.947Z,97648.44
2023-05-21T14:40:07.988Z,97643.88
2023-05-21T14:44:10.175Z,97652.78
2023-05-21T14:48:12.386Z,97658.31
2023-05-21T14:52:14.465Z,97658.50
2023-05-21T14:56:16.636Z,97650.78
2023-05-21T15:00:18.859Z,97654.16
2023-05-21T15:04:21.119Z,97649.44
2023-05-21T15:08:23.184Z,97654.50
2023-05-21T15:12:25.258Z,97653.13
2023-05-21T15:16:27.510Z,97659.19
2023-05-21T15:20:29.635Z,97658.50
2023-05-21T15:24:31.698Z,97650.94
2023-05-21T15:28:33.737Z,97651.44
2023-05-21T15:32:35.872Z,97646.78
2023-05-21T15:36:37.886Z,97642.72
2023-05-21T15:40:41.875Z,97635.63
2023-05-21T15:44:44.001Z,97628.84
2023-05-21T15:48:46.059Z,97627.78
2023-05-21T15:52:48.361Z,97614.94
2023-05-21T15:56:51.069Z,97626.16
2023-05-21T16:00:53.151Z,97621.84
2023-05-21T16:04:55.211Z,97611.09
2023-05-21T16:08:57.927Z,97620.00
2023-05-21T16:13:00.139Z,97609.00
2023-05-21T16:17:02.300Z,97613.34
2023-05-21T16:21:04.638Z,97623.13
2023-05-21T16:25:07.367Z,97616.38
2023-05-21T16:29:09.462Z,97618.00
2023-05-21T16:33:12.413Z,97619.00
2023-05-21T16:37:14.501Z,97621.75
2023-05-21T16:41:16.656Z,97621.38
2023-05-21T16:45:21.829Z,97607.56
2023-05-21T16:49:23.967Z,97613.97
2023-05-21T16:53:26.252Z,97620.38
2023-05-21T16:57:28.358Z,97625.72
2023-05-21T17:01:30.526Z,97616.88
2023-05-21T17:05:32.608Z,97619.25
2023-05-21T17:09:34.706Z,97630.34
2023-05-21T17:13:36.918Z,97620.56
2023-05-21T17:17:39.086Z,97626.28
2023-05-21T17:21:41.146Z,97639.69
2023-05-21T17:25:43.268Z,97633.31
2023-05-21T17:29:45.932Z,97635.97
2023-05-21T17:33:48.004Z,97629.44
2023-05-21T17:37:50.132Z,97632.44
2023-05-21T17:41:52.556Z,97635.09
2023-05-21T17:45:54.701Z,97631.84
2023-05-21T17:49:56.724Z,97641.19
2023-05-21T17:53:58.825Z,97638.78
2023-05-21T17:58:00.834Z,97639.59
2023-05-21T18:02:02.921Z,97634.81
2023-05-21T18:06:06.829Z,97627.00
2023-05-21T18:10:10.564Z,97631.09
2023-05-21T18:14:12.612Z,97636.88
2023-05-21T18:18:19.863Z,97624.91
2023-05-21T18:22:23.587Z,97638.84
2023-05-21T18:26:25.804Z,97630.81
2023-05-21T18:30:27.852Z,97639.69
2023-05-21T18:34:29.944Z,97643.03
2023-05-21T18:38:32.282Z,97633.25
2023-05-21T18:42:34.508Z,97635.06
2023-05-21T18:46:37.476Z,97634.03
2023-05-21T18:50:39.817Z,97636.31
2023-05-21T18:54:41.890Z,97631.47
2023-05-21T18:58:43.948Z,97635.25
2023-05-21T19:02:46.742Z,97643.84
2023-05-21T19:06:48.940Z,97645.56
2023-05-21T19:10:52.813Z,97646.16
2023-05-21T19:14:54.852Z,97654.19
2023-05-21T19:18:56.918Z,97655.31
2023-05-21T19:22:59.201Z,97655.94
2023-05-21T19:27:01.270Z,97653.56
2023-05-21T19:31:03.575Z,97658.28
2023-05-21T19:35:06.350Z,97657.94
2023-05-21T19:39:09.033Z,97664.72
2023-05-21T19:43:12.763Z,97669.63
2023-05-21T19:47:14.859Z,97664.19
2023-05-21T19:51:17.276Z,97671.34
2023-05-21T19:55:20.065Z,97679.00
2023-05-21T19:59:22.433Z,97678.78
2023-05-21T20:03:28.619Z,97680.53
2023-05-21T20:07:30.735Z,97682.91
2023-05-21T20:11:33.701Z,97678.59
2023-05-21T20:15:36.091Z,97680.78
2023-05-21T20:19:38.514Z,97686.56
2023-05-21T20:23:40.697Z,97686.84
2023-05-21T20:27:42.845Z,97692.25
2023-05-21T20:31:44.953Z,97687.56
2023-05-21T20:35:47.004Z,97697.22
2023-05-21T20:39:49.059Z,97701.06
2023-05-21T20:43:52.245Z,97702.59
2023-05-21T20:47:56.714Z,97698.84
2023-05-21T20:52:00.414Z,97695.44
2023-05-21T20:56:02.556Z,97687.66
2023-05-21T21:00:05.345Z,97690.06
2023-05-21T21:04:07.404Z,97681.41
2023-05-21T21:08:09.547Z,97689.94
2023-05-21T21:12:24.522Z,97689.22
2023-05-21T21:16:28.368Z,97691.47
2023-05-21T21:20:30.789Z,97693.41
2023-05-21T21:24:32.908Z,97696.09
2023-05-21T21:28:35.096Z,97693.75
2023-05-21T21:32:37.238Z,97692.69
2023-05-21T21:36:39.317Z,97693.25
2023-05-21T21:40:41.559Z,97688.72
2023-05-21T21:44:43.731Z,97691.28
2023-05-21T21:48:45.823Z,97689.38
2023-05-21T21:52:48.832Z,97694.16
2023-05-21T21:56:51.137Z,97695.56
2023-05-21T22:00:53.508Z,97691.63
2023-05-21T22:04:55.710Z,97691.97
2023-05-21T22:08:57.858Z,97695.47
2023-05-21T22:13:00.152Z,97703.25
2023-05-21T22:17:02.857Z,97693.09
2023-05-21T22:21:09.151Z,97693.81
2023-05-21T22:25:11.735Z,97695.84
2023-05-21T22:29:13.777Z,97697.13
2023-05-21T22:33:16.055Z,97689.63
2023-05-21T22:37:18.988Z,97699.06
2023-05-21T22:41:21.793Z,97696.44
2023-05-21T22:45:23.844Z,97691.66
2023-05-21T22:49:26.910Z,97700.56
2023-05-21T22:53:29.048Z,97687.34
2023-05-21T22:57:31.150Z,97695.25
2023-05-21T23:01:33.446Z,97704.91
2023-05-21T23:05:35.816Z,97689.88
2023-05-21T23:09:37.996Z,97697.28
2023-05-21T23:13:40.051Z,97706.47
2023-05-21T23:17:42.190Z,97697.38
2023-05-21T23:21:44.333Z,97701.69
2023-05-21T23:25:46.401Z,97691.53
2023-05-21T23:29:48.520Z,97693.50
2023-05-21T23:33:51.672Z,97695.47
2023-05-21T23:37:53.721Z,97687.31
2023-05-21T23:41:55.932Z,97688.78
2023-05-21T23:45:58.053Z,97692.59
2023-05-21T23:50:00.256Z,97685.81
2023-05-21T23:54:02.339Z,97693.41
2023-05-21T23:58:04.599Z,97685.78
